Timeline UpdatesTrip UpdatesNews PostsPvt Posts♥♥Travel TipsAdmin PostsConv PostsFollowed PostsChat RequestsBlog PostsPNR Posts

Disclaimer
Search
 
 
Thu Nov 27, 2014 13:48:46 ISTHomeTrainsΣChainsAtlasPNRForumGalleryNewsFAQTripsMembersLoginFeedback
No Recent News for this Train
Other Trains in the News **new
Latest...
.
Wed Mar 26, 2014 (11:12PM)
⇐ Return Journey: Train# 12138

12137/Punjab Mail

Time-Table HAS CHANGED.
Sep 18 2014 (9:29PM)
Change Departure Station:
Change Arrival Station:
Post a Train Travel TipPost a Train Travel Tip **new
Post a Comment/Question/Picture/VideoPost a Comment/Question/Picture/Video
Inaugural Run
Sat Jun 01, 1912
Pantry/Catering
✓ Pantry Car Avbl
✓ Catering Avbl
RSA - Rake Sharing
No RSA. This train has RMS Facility.
Rake/Coach Composition
LOCO-RMS-MLTY-S10-S9-S8-S7-S6-S5-S4-S3-S2-PC-S1-B5-B4-B3-B2-B1-A1-AB1-HA1-GEN-GEN(Opening at Kalyan)-SLR.
Loco
CSTM-IGP=> KYN WCAM-3; IGP-NDLS=> GZB WAP-4/7; NDLS-FZR=> BGKT WDP-4/4B.
News    PNR    Forum    Time-Table    Availability    Fare Chart    Map    Arr/Dep History    Trips    Gallery    ΣChains    X/O    Timeline    
Travel Time: 18h 0m    30 halts    Distance: 1002 km    Avg Speed: 55 km/hr
Type: SuperFast
Zone: CR/Central
Departs @ 09:40 (Avg 32m late)
Platform# 2
SMTWTFS
Bhopal Junction/BPL 
Arrives @ 03:40 +1 night (Avg 59m late)
Platform# 5
SMTWTFS
Bathinda Junction/BTI 

30 halts. 146 intermediate Stations between Bhopal Junction and Bathinda Junction

Show ALL intermediate Stations  Show Old Time-Table

#TrkCodeStation NameX/OArrivesAvgDepartsAvgHaltPFDay#KmSpeedElevZoneAddress
1/==/CSTMMumbai CST (18)  -19:40+2171-841.04310mCRMumbai 400001, Maharashtra
2/==/DRMumbai Dadar Central (8)  19:52+519:55+43m51-832.4677mCRMumbai 400014, Maharashtra
3/==/KYNKalyan Junction (8)X  20:35+1720:40+175m41-787.96410mCRKalyan 421301, Maharashtra
4/==/KSRAKasara (4)  21:43+1821:45+232m31-720.525290mCRDist. Thane 421602, Maharashtra
5/==/IGPIgatpuri (4)22:25 22:20+1122:30 22:25+255m11-706.263589mCRIgatpuri 422403, Maharashtra
6/==/DVLDevlali (3)X  23:08+3223:10+322m11-661.234561mCRDist. Nashik 422401, Maharashtra
7/==/NKNasik Road (3)XO  23:20+3023:25+355m21-655.570563mCRNashik 422101, Maharashtra
8/==/MMRManmad Junction (6)X  00:27+2600:30+283m22-582.792580mCRManmad 423104, Maharashtra
9/==/CSNChalisgaon Junction (3)X  01:14+2901:16+292m12-515.2107352mCRChalisgaon 424101, Maharashtra
10/==/JLJalgaon Junction (4)XO  02:08+4002:10+412m32-422.648213mCRJalgaon 425001, Maharashtra
11/==/BSLBhusaval Junction (8)X  02:40+3602:45 02:50+385 10m62-398.586208mCRBhusaval 425201, Maharashtra
12/==/BAUBurhanpur (2)X  03:28+3803:30+382m22-344.049269mCRBurhanpur, Madhya Pradesh
13/==/KNWKhandwa Junction (5)X  05:05 04:55+1305:10 05:00+125m32-275.295310mCRKhandwa, Madhya Pradesh
14/==/KKNKhirkiya (2)  05:48+2605:50+262m22-199.168281mWCRSH 15, Madhya Pradesh
15/==/HDHarda (3)X  06:18+2306:20+232m22-167.585289mWCRHarda, Madhya Pradesh
16/==/BPFBanapura (2)X  06:50+2306:52+232m22-125.247314mWCRBanapura, Madhya Pradesh
17/==/ETItarsi Junction (7)X  07:35+1307:40+205m22-91.760329mWCRItarsi 461111, Madhya Pradesh
18/==/HBDHoshangabad (2)X  07:58+2408:00+242m12-73.658308mWCRHoshangabad, Madhya Pradesh
19/==/HBJBhopal HabibGanj (5)  09:10+3609:12+362m12-6.216496mWCRHabibGanj, Madhya Pradesh
20/==/BPLBhopal Junction (6)»XO  09:35+3009:40+325m220.087497mWCRBhopal, Madhya Pradesh
21/==/BHSVidisha (3)X  10:17+3810:19+392m1253.581433mWCRVidisha, Madhya Pradesh
22/==/BAQGanj Basoda (4)O  10:48+3810:50+382m2292.839415mWCRVidisha, Madhya Pradesh
23/==/BINABina Junction (5)  12:00+1212:05+145m22138.673414mWCRJn Pt - KATNI/GUNA/ BPL/JHS, Madhya Pradesh
24/==/LARLalitpur (3)XO  12:57+2212:59+232m32201.590373mNCRLalitpur, Uttar Pradesh
25/==/BABBabina (3)X  13:42+3313:44+342m22266.342285mNCRBabina, Uttar Pradesh
26/==/JHSJhansi Junction (7)X  14:22 14:20+2914:30+318 10m22291.875259mNCRJhansi, Uttar Pradesh
27/==/DAADatia (2)X  14:52 14:50+3814:54 14:52+382m22316.883264mNCRDatia, Madhya Pradesh
28/==/DBADabra (3)  15:16 15:14+4315:18 15:16+432m22347.265207mNCRDabra(District-Gwalior), Madhya Pradesh
29/==/GWLGwalior Junction (4)  16:00 15:55+4816:05 16:00+475m22389.593214mNCRGwalior, Madhya Pradesh
30/==/MRAMorena (3)  16:30 16:25+5516:32 16:27+552m22428.170176mNCRMorena, Madhya Pradesh
31/==/DHODholpur Junction (3)X  16:55 16:50+5616:57 16:52+572m12454.954177mNCRDholpur, Rajasthan
32/==/AGCAgra Cantt. (6)X  17:50+1:1217:55+1:175m22507.534174mNCRAgra, Uttar Pradesh
33/==/RKMRaja Ki Mandi (4)X  18:02+1:2018:04+1:202m12511.578170mNCRAgra, Uttar Pradesh
34/==/MTJMathura Junction (10)  18:42+1:2418:45+1:253m22561.289179mNCRMathura, Uttar Pradesh
35/==/KSVKosi Kalan (3)  19:13+1:3119:15+1:312m22602.762189mNCRKosi Kalan, Uttar Pradesh
36/==/FDBFaridabad (4)X  20:24+1:1820:26+1:182m22674.450206mNRold Faridabad, Haryana
37/==/NZMDelhi Hazrat Nizamuddin (7)XO  20:51+1:2320:53+1:232m52695.220209mNRNew Delhi 110013, Delhi NCT
38/==/NDLSNew Delhi (16)X21:15+1:3121:50+1:2835m42702.515215mNRNew Delhi 110002, Delhi NCT
39/==/DKZDelhi KishanGanj (2)  22:06+1:2822:08+1:282m--2706.435220mNRSarai Rohilla, Delhi NCT
40/==/SSBShakur Basti  22:20+1:3122:22+1:312m--2713.467216mNRPitampura, Delhi NCT
41/==/BGZBahadurgarhX  22:40+1:3922:42+1:392m--2733.364220mNRBahadurgarh, Haryana
42/==/ROKRohtak Junction (3)  23:20+1:3423:23+1:333m--2773.669220mNRRohtak, Haryana
43|==|JINDJind Junction (3)  00:13+1:3200:15+1:322m--3830.788222mNRJind 126102, Haryana
44|==|NRWNarwana Junction (4)  00:38+1:3400:40+1:352m--3864.690235mNRKKDE, Haryana
45|==|TUNTohana (2)  00:57+1:3900:59+1:392m13890.141232mNRTohana, Haryana
46|-=|JHLJakhal Junction  01:18 01:17+1:3601:20+1:372 3m13902.366225mNRJakhal, Haryana
47!==!BRZBareta  01:33+1:3301:35+1:332m13916.584223mNRBareta, Punjab
48!==!BLZBudhlada  01:46+1:3801:48+1:382m13931.974223mNRBudhlada, Punjab
49!==!MSZMansa  02:01+1:4202:03+1:422m13948.056222mNRMansa, Punjab
50!==!MAURMaurX  02:23+1:4002:25+1:392m13966.728220mNRMaur Mandi, Punjab
51!==!BTIBathinda Junction (6)•  03:40+5903:50+5810m531002.267208mNRBathinda, Punjab
52|--|GNAGoneana Bhai Jagta (3)X  04:01+1:1104:03+1:132m131014.565206mNRGoniana, Punjab
53|--|GJUTGangsar Jaitu (3)  04:16+1:1704:18+1:172m131028.758207mNRJaitu, Punjab
54|--|KKPKot Kapura Junction (3)  04:35+1:1804:37+1:192m131045.0640mNRKotkapura, Punjab
55|--|FDKFaridkot (3)X  04:51 04:49+1:2004:53 04:51+1:202m131057.733202mNRFaridkot, Punjab
56|--|FZRFirozpur Cantt. Junction (5)  05:40 05:50+46-131090.0-200mNRFirozpur Cantt 152001, Punjab
Scroll to Top
Scroll to Bottom